Time;durP1;ratioP1;P1;durP2;ratioP2;P2;SDS_P1;SDS_P2;PMS_P1;PMS_P2;Temp;Humidity;BMP_temperature;BMP_pressure;BME280_temperature;BME280_humidity;BME280_pressure;Samples;Min_cycle;Max_cycle;Signal;HPM_P1;HPM_P2
2023/12/08 00:00:12;;;;;;;7.20;4.70;;;1.80;99.90;;;;;;494084;241;27513;-73
2023/12/08 00:02:13;;;;;;;6.87;5.20;;;1.80;99.90;;;;;;494076;241;27474;-72
2023/12/08 00:04:15;;;;;;;5.87;5.00;;;1.90;99.90;;;;;;494057;241;28005;-73
2023/12/08 00:06:16;;;;;;;6.35;5.40;;;1.90;99.90;;;;;;494109;241;28670;-73
2023/12/08 00:08:18;;;;;;;6.55;5.55;;;1.90;99.90;;;;;;494078;241;28042;-72
2023/12/08 00:10:18;;;;;;;5.95;4.93;;;1.90;99.90;;;;;;493954;241;29145;-72
2023/12/08 00:12:20;;;;;;;6.22;5.43;;;1.90;99.90;;;;;;494090;241;27493;-72
2023/12/08 00:14:21;;;;;;;9.18;4.90;;;2.00;99.90;;;;;;494073;241;27494;-73
2023/12/08 00:16:22;;;;;;;6.45;4.45;;;2.00;99.90;;;;;;494074;241;27516;-74
2023/12/08 00:18:23;;;;;;;7.40;4.90;;;2.00;99.90;;;;;;493984;241;27646;-73
2023/12/08 00:20:25;;;;;;;5.47;4.53;;;2.00;99.90;;;;;;494015;241;27506;-73
2023/12/08 00:22:27;;;;;;;7.57;5.10;;;2.00;99.90;;;;;;494000;241;27481;-73
2023/12/08 00:24:27;;;;;;;5.43;4.70;;;2.10;99.90;;;;;;493950;241;27620;-73
2023/12/08 00:26:28;;;;;;;8.60;4.57;;;2.10;99.90;;;;;;494016;241;27522;-74
2023/12/08 00:28:30;;;;;;;6.80;5.07;;;2.00;99.90;;;;;;494065;241;27461;-73
2023/12/08 00:30:31;;;;;;;6.57;4.62;;;2.10;99.90;;;;;;494080;241;27502;-72
2023/12/08 00:32:32;;;;;;;5.30;4.50;;;2.10;99.90;;;;;;494099;241;28740;-73
2023/12/08 00:34:34;;;;;;;6.70;4.35;;;2.10;99.90;;;;;;494096;241;27913;-73
2023/12/08 00:36:35;;;;;;;5.70;4.70;;;2.10;99.90;;;;;;494100;241;27957;-73
2023/12/08 00:38:36;;;;;;;5.00;4.50;;;2.00;99.90;;;;;;494085;241;28004;-72
2023/12/08 00:40:37;;;;;;;5.07;4.15;;;2.10;99.90;;;;;;494089;241;27500;-73
2023/12/08 00:42:38;;;;;;;4.90;4.40;;;2.10;99.90;;;;;;494102;237;27497;-74
2023/12/08 00:44:40;;;;;;;6.05;5.15;;;2.00;99.90;;;;;;494053;241;27453;-73
2023/12/08 00:46:41;;;;;;;5.82;4.70;;;1.90;99.90;;;;;;494106;241;27539;-73
2023/12/08 00:48:42;;;;;;;5.45;4.35;;;1.90;99.90;;;;;;493869;241;27562;-73
2023/12/08 00:50:43;;;;;;;5.90;5.18;;;1.90;99.90;;;;;;494011;241;27509;-72
2023/12/08 00:52:45;;;;;;;5.25;4.37;;;1.90;99.90;;;;;;494025;241;27865;-74
2023/12/08 00:54:46;;;;;;;6.12;4.97;;;1.90;99.90;;;;;;494010;241;27573;-72
2023/12/08 00:56:47;;;;;;;4.80;4.30;;;1.90;99.90;;;;;;494071;241;27616;-73
2023/12/08 00:58:48;;;;;;;5.57;4.68;;;1.90;99.90;;;;;;494031;241;27603;-72
2023/12/08 01:00:50;;;;;;;5.62;4.87;;;1.90;99.90;;;;;;493954;241;27958;-72
2023/12/08 01:02:51;;;;;;;5.72;4.37;;;1.90;99.90;;;;;;493963;241;27949;-74
2023/12/08 01:04:52;;;;;;;6.97;5.00;;;1.90;99.90;;;;;;493952;241;27944;-72
2023/12/08 01:06:53;;;;;;;4.60;4.12;;;1.90;99.90;;;;;;494001;241;28171;-73
2023/12/08 01:08:55;;;;;;;5.93;4.55;;;1.90;99.90;;;;;;493943;241;27786;-73
2023/12/08 01:10:56;;;;;;;6.15;5.25;;;1.90;99.90;;;;;;493989;241;27486;-72
2023/12/08 01:12:57;;;;;;;9.02;5.65;;;1.90;99.90;;;;;;494026;241;27541;-74
2023/12/08 01:14:58;;;;;;;10.70;7.18;;;1.90;99.90;;;;;;494022;241;27487;-72
2023/12/08 01:17:00;;;;;;;9.20;5.70;;;1.90;99.90;;;;;;493956;241;27602;-73
2023/12/08 01:19:01;;;;;;;12.50;7.03;;;1.90;99.90;;;;;;494087;241;27525;-73
2023/12/08 01:21:03;;;;;;;14.40;8.75;;;2.00;99.90;;;;;;494095;241;27572;-73
2023/12/08 01:23:03;;;;;;;10.85;7.12;;;2.00;99.90;;;;;;493952;241;27488;-73
2023/12/08 01:25:05;;;;;;;9.80;6.60;;;2.00;99.90;;;;;;494080;241;27898;-72
2023/12/08 01:27:06;;;;;;;11.57;7.03;;;2.00;99.90;;;;;;493909;237;28038;-72
2023/12/08 01:29:07;;;;;;;11.45;7.43;;;2.00;99.90;;;;;;493941;241;28085;-75
2023/12/08 01:31:08;;;;;;;10.82;6.93;;;2.00;99.90;;;;;;494020;241;27470;-73
2023/12/08 01:33:10;;;;;;;12.15;6.95;;;2.00;99.90;;;;;;494025;241;27615;-72
2023/12/08 01:35:11;;;;;;;9.20;6.25;;;2.00;99.90;;;;;;494002;241;27568;-73
2023/12/08 01:37:12;;;;;;;8.65;5.80;;;2.00;99.90;;;;;;493966;241;27525;-73
2023/12/08 01:39:13;;;;;;;9.18;6.05;;;2.00;99.90;;;;;;494005;241;27533;-74
2023/12/08 01:41:15;;;;;;;9.95;5.40;;;2.00;99.90;;;;;;494046;241;27461;-72
2023/12/08 01:43:16;;;;;;;6.57;4.80;;;1.90;99.90;;;;;;494077;241;27519;-73
2023/12/08 01:45:17;;;;;;;6.37;5.20;;;1.90;99.90;;;;;;494059;241;27543;-72
2023/12/08 01:47:19;;;;;;;5.75;4.90;;;1.90;99.90;;;;;;493985;241;27466;-72
2023/12/08 01:49:20;;;;;;;6.47;4.95;;;1.90;99.90;;;;;;494000;241;27963;-73
2023/12/08 01:51:21;;;;;;;6.32;5.40;;;1.90;99.90;;;;;;494003;241;27918;-73
2023/12/08 01:53:22;;;;;;;9.85;5.80;;;1.80;99.90;;;;;;493981;241;27973;-72
2023/12/08 01:55:23;;;;;;;7.68;5.80;;;1.80;99.90;;;;;;494012;241;28075;-74
2023/12/08 01:57:25;;;;;;;8.13;5.32;;;1.80;99.90;;;;;;493963;241;27522;-72
2023/12/08 01:59:26;;;;;;;8.55;5.45;;;1.80;99.90;;;;;;493996;241;27491;-72
2023/12/08 02:01:27;;;;;;;7.50;5.15;;;1.80;99.90;;;;;;493964;241;27550;-73
2023/12/08 02:03:28;;;;;;;7.35;5.18;;;1.90;99.90;;;;;;493974;241;27501;-73
2023/12/08 02:05:30;;;;;;;9.27;6.10;;;1.90;99.90;;;;;;493992;241;27523;-75
2023/12/08 02:07:31;;;;;;;7.25;5.40;;;1.90;99.90;;;;;;493961;241;27619;-72
2023/12/08 02:09:32;;;;;;;6.10;5.15;;;2.00;99.90;;;;;;493990;241;27517;-72
2023/12/08 02:11:33;;;;;;;10.25;6.07;;;2.10;99.90;;;;;;493971;241;27472;-72
2023/12/08 02:13:35;;;;;;;7.45;5.55;;;2.10;99.90;;;;;;493870;241;27486;-72
2023/12/08 02:15:36;;;;;;;7.28;5.20;;;2.10;99.90;;;;;;494084;241;27491;-73
2023/12/08 02:17:38;;;;;;;6.72;5.70;;;2.10;99.90;;;;;;494028;241;27934;-73
2023/12/08 02:19:38;;;;;;;8.15;6.00;;;2.10;99.90;;;;;;493997;241;28093;-73
2023/12/08 02:21:40;;;;;;;8.00;5.15;;;2.10;99.90;;;;;;494079;241;28802;-72
2023/12/08 02:23:41;;;;;;;5.97;4.85;;;2.00;99.90;;;;;;494071;241;27936;-73
2023/12/08 02:25:42;;;;;;;8.93;5.85;;;2.00;99.90;;;;;;494043;241;27624;-73
2023/12/08 02:27:43;;;;;;;5.15;4.65;;;2.10;99.90;;;;;;494048;241;27466;-74
2023/12/08 02:29:45;;;;;;;7.07;5.20;;;2.20;99.90;;;;;;494079;241;27627;-73
2023/12/08 02:31:46;;;;;;;6.82;4.87;;;2.10;99.90;;;;;;493995;241;27493;-74
2023/12/08 02:33:47;;;;;;;6.07;5.10;;;2.20;99.90;;;;;;494001;241;27457;-73
2023/12/08 02:35:48;;;;;;;5.72;4.40;;;2.20;99.90;;;;;;493973;241;27590;-73
2023/12/08 02:37:50;;;;;;;5.18;4.20;;;2.30;99.90;;;;;;493967;241;27616;-72
2023/12/08 02:39:51;;;;;;;5.90;4.85;;;2.30;99.90;;;;;;494012;241;27501;-73
2023/12/08 02:41:52;;;;;;;4.93;3.80;;;2.20;99.90;;;;;;493989;241;27581;-74
2023/12/08 02:43:53;;;;;;;5.30;4.55;;;2.30;99.90;;;;;;494071;241;27470;-72
2023/12/08 02:45:55;;;;;;;5.15;4.25;;;2.30;99.90;;;;;;494068;241;27981;-72
2023/12/08 02:47:56;;;;;;;6.05;4.50;;;2.30;99.90;;;;;;494074;241;28951;-73
2023/12/08 02:49:57;;;;;;;6.10;3.78;;;2.40;99.90;;;;;;494130;241;27911;-73
2023/12/08 02:51:58;;;;;;;4.80;4.28;;;2.40;99.90;;;;;;494059;241;27988;-74
2023/12/08 02:54:00;;;;;;;4.43;4.03;;;2.40;99.90;;;;;;494107;241;27514;-73
2023/12/08 02:56:01;;;;;;;3.83;3.53;;;2.40;99.90;;;;;;494058;241;27505;-73
2023/12/08 02:58:02;;;;;;;5.43;4.65;;;2.40;99.90;;;;;;493965;241;27521;-74
2023/12/08 03:00:04;;;;;;;5.78;4.00;;;2.40;99.90;;;;;;493967;241;27592;-72
2023/12/08 03:02:05;;;;;;;4.97;4.05;;;2.40;99.90;;;;;;494006;241;27499;-73
2023/12/08 03:04:06;;;;;;;5.00;4.50;;;2.40;99.90;;;;;;494019;241;27453;-72
2023/12/08 03:06:07;;;;;;;4.18;3.78;;;2.40;99.90;;;;;;493975;241;27592;-73
2023/12/08 03:08:08;;;;;;;4.95;4.12;;;2.50;99.90;;;;;;494096;241;27549;-74
2023/12/08 03:10:10;;;;;;;5.85;4.45;;;2.50;99.90;;;;;;494109;241;27521;-72
2023/12/08 03:12:11;;;;;;;5.05;4.22;;;2.50;99.90;;;;;;494130;237;27585;-73
2023/12/08 03:14:12;;;;;;;3.87;3.47;;;2.50;99.90;;;;;;494070;241;27468;-73
2023/12/08 03:16:13;;;;;;;4.82;4.05;;;2.50;99.90;;;;;;494093;241;27947;-73
2023/12/08 03:18:15;;;;;;;5.22;3.90;;;2.50;99.90;;;;;;494087;241;28030;-74
2023/12/08 03:20:16;;;;;;;6.60;4.12;;;2.50;99.90;;;;;;494089;241;29005;-72
2023/12/08 03:22:17;;;;;;;5.60;4.40;;;2.50;99.90;;;;;;494117;241;28075;-73
2023/12/08 03:24:18;;;;;;;3.62;3.33;;;2.50;99.90;;;;;;494001;237;27502;-73
2023/12/08 03:26:20;;;;;;;4.53;3.67;;;2.60;99.90;;;;;;494101;241;27501;-72
2023/12/08 03:28:21;;;;;;;5.43;3.75;;;2.50;99.90;;;;;;493995;241;27485;-73
2023/12/08 03:30:22;;;;;;;5.90;3.58;;;2.50;99.90;;;;;;494002;241;27469;-73
2023/12/08 03:32:23;;;;;;;3.80;3.35;;;2.60;99.90;;;;;;494076;241;27520;-74
2023/12/08 03:34:25;;;;;;;4.72;4.00;;;2.50;99.90;;;;;;494004;241;27878;-73
2023/12/08 03:36:26;;;;;;;3.95;3.58;;;2.50;99.90;;;;;;493999;241;27475;-73
2023/12/08 03:38:27;;;;;;;3.92;3.55;;;2.60;99.90;;;;;;494070;241;27587;-73
2023/12/08 03:40:29;;;;;;;4.43;4.00;;;2.50;99.90;;;;;;494090;239;27984;-72
2023/12/08 03:42:35;;;;;;;4.18;3.60;;;2.50;99.90;;;;;;494059;241;28077;-74
2023/12/08 03:44:31;;;;;;;3.97;3.58;;;2.50;99.90;;;;;;493601;241;29065;-75
2023/12/08 03:46:33;;;;;;;4.47;3.83;;;2.50;99.90;;;;;;493990;241;29114;-73
2023/12/08 03:48:34;;;;;;;4.55;4.05;;;2.50;99.90;;;;;;494021;241;27509;-73
2023/12/08 03:50:35;;;;;;;3.78;3.40;;;2.50;99.90;;;;;;494014;241;27451;-72
2023/12/08 03:52:36;;;;;;;4.82;3.87;;;2.50;99.90;;;;;;494032;241;27465;-73
2023/12/08 03:54:37;;;;;;;4.28;3.87;;;2.50;99.90;;;;;;494065;241;27596;-74
2023/12/08 03:56:39;;;;;;;5.47;3.40;;;2.50;99.90;;;;;;494067;241;27501;-73
2023/12/08 03:58:40;;;;;;;3.60;3.30;;;2.50;99.90;;;;;;494059;237;27627;-73
2023/12/08 04:00:41;;;;;;;4.62;4.10;;;2.50;99.90;;;;;;494067;241;27502;-75
2023/12/08 04:02:42;;;;;;;5.45;3.70;;;2.50;99.90;;;;;;494032;237;27560;-72
2023/12/08 04:04:44;;;;;;;8.25;5.80;;;2.50;99.90;;;;;;494038;241;27577;-73
2023/12/08 04:06:45;;;;;;;6.65;4.90;;;2.50;99.90;;;;;;494026;241;27462;-72
2023/12/08 04:08:46;;;;;;;4.97;4.20;;;2.50;99.90;;;;;;494021;241;28067;-72
2023/12/08 04:10:47;;;;;;;5.00;4.45;;;2.50;99.90;;;;;;494043;241;27997;-73
2023/12/08 04:12:49;;;;;;;4.75;4.12;;;2.50;99.90;;;;;;494107;241;28013;-73
2023/12/08 04:14:50;;;;;;;6.68;4.60;;;2.50;99.90;;;;;;494089;241;28087;-73
2023/12/08 04:16:51;;;;;;;4.07;3.75;;;2.50;99.90;;;;;;494047;241;27529;-72
2023/12/08 04:18:52;;;;;;;4.68;4.03;;;2.60;99.90;;;;;;494037;241;27497;-73
2023/12/08 04:20:54;;;;;;;5.43;4.07;;;2.60;99.90;;;;;;493995;241;27590;-74
2023/12/08 04:22:55;;;;;;;4.53;4.12;;;2.60;99.90;;;;;;494001;241;27450;-73
2023/12/08 04:24:56;;;;;;;4.62;4.22;;;2.60;99.90;;;;;;493963;241;27588;-73
2023/12/08 04:26:57;;;;;;;7.87;4.45;;;2.60;99.90;;;;;;493963;241;27619;-73
2023/12/08 04:28:59;;;;;;;4.95;3.90;;;2.60;99.90;;;;;;493990;237;27481;-72
2023/12/08 04:31:00;;;;;;;4.35;3.85;;;2.60;99.90;;;;;;494021;241;27508;-73
2023/12/08 04:33:01;;;;;;;4.40;3.78;;;2.60;99.90;;;;;;493991;241;27471;-72
2023/12/08 04:35:02;;;;;;;6.05;4.10;;;2.60;99.90;;;;;;493950;241;27509;-72
2023/12/08 04:37:04;;;;;;;5.75;3.87;;;2.60;99.90;;;;;;493989;241;28022;-73
2023/12/08 04:39:05;;;;;;;4.80;3.65;;;2.60;99.90;;;;;;493994;241;27924;-72
2023/12/08 04:41:06;;;;;;;4.10;3.70;;;2.60;99.90;;;;;;493996;241;28069;-72
2023/12/08 04:43:07;;;;;;;5.00;3.87;;;2.60;99.90;;;;;;493982;237;29028;-72
2023/12/08 04:45:09;;;;;;;4.22;3.65;;;2.60;99.90;;;;;;493958;241;27501;-73
2023/12/08 04:47:10;;;;;;;3.37;3.08;;;2.60;99.90;;;;;;493976;241;27549;-73
2023/12/08 04:49:11;;;;;;;3.45;3.15;;;2.70;99.90;;;;;;494002;241;27469;-72
2023/12/08 04:51:12;;;;;;;4.53;3.65;;;2.60;99.90;;;;;;494003;241;27500;-72
2023/12/08 04:53:14;;;;;;;3.53;3.22;;;2.60;99.90;;;;;;494083;241;27549;-72
2023/12/08 04:55:15;;;;;;;3.30;3.00;;;2.60;99.90;;;;;;494003;241;27480;-72
2023/12/08 04:57:16;;;;;;;3.70;3.40;;;2.60;99.90;;;;;;494003;241;27514;-73
2023/12/08 04:59:17;;;;;;;3.75;3.25;;;2.60;99.90;;;;;;494014;241;27511;-72
2023/12/08 05:01:19;;;;;;;4.12;3.75;;;2.60;99.90;;;;;;493999;241;27574;-72
2023/12/08 05:03:20;;;;;;;4.50;4.10;;;2.60;99.90;;;;;;493967;241;27592;-72
2023/12/08 05:05:21;;;;;;;5.20;4.47;;;2.60;99.90;;;;;;494085;241;27483;-73
2023/12/08 05:07:22;;;;;;;5.32;4.20;;;2.60;99.90;;;;;;494081;241;28095;-73
2023/12/08 05:09:24;;;;;;;5.35;4.75;;;2.60;99.90;;;;;;494013;241;28002;-73
2023/12/08 05:11:25;;;;;;;8.23;4.62;;;2.60;99.90;;;;;;494039;241;29074;-73
2023/12/08 05:13:26;;;;;;;4.55;3.75;;;2.60;99.90;;;;;;494003;241;27622;-73
2023/12/08 05:15:28;;;;;;;5.20;4.70;;;2.60;99.90;;;;;;493998;241;27552;-73
2023/12/08 05:17:29;;;;;;;5.07;4.57;;;2.60;99.90;;;;;;494077;241;27629;-73
2023/12/08 05:19:30;;;;;;;6.62;5.43;;;2.60;99.90;;;;;;494062;241;27603;-73
2023/12/08 05:21:31;;;;;;;7.53;5.12;;;2.60;99.90;;;;;;493983;241;27584;-73
2023/12/08 05:23:32;;;;;;;6.90;5.20;;;2.60;99.90;;;;;;494010;241;27513;-75
2023/12/08 05:25:34;;;;;;;7.07;5.75;;;2.60;99.90;;;;;;494092;241;27521;-72
2023/12/08 05:27:35;;;;;;;7.07;5.60;;;2.60;99.90;;;;;;494071;241;27518;-73
2023/12/08 05:29:36;;;;;;;6.93;4.90;;;2.60;99.90;;;;;;494051;241;27595;-73
2023/12/08 05:31:37;;;;;;;7.30;5.35;;;2.60;99.90;;;;;;494067;241;27478;-73
2023/12/08 05:33:39;;;;;;;8.00;5.65;;;2.60;99.90;;;;;;493990;241;27505;-72
2023/12/08 05:35:40;;;;;;;10.27;6.15;;;2.60;99.90;;;;;;493984;241;27954;-72
2023/12/08 05:37:41;;;;;;;9.75;6.28;;;2.50;99.90;;;;;;493987;241;28045;-72
2023/12/08 05:39:42;;;;;;;8.57;6.60;;;2.50;99.90;;;;;;493967;241;28072;-74
2023/12/08 05:41:44;;;;;;;10.70;6.62;;;2.50;99.90;;;;;;493994;241;27498;-73
2023/12/08 05:43:45;;;;;;;10.95;6.78;;;2.50;99.90;;;;;;494038;241;27580;-74
2023/12/08 05:45:46;;;;;;;15.40;9.05;;;2.50;99.90;;;;;;493981;241;27509;-73
2023/12/08 05:47:47;;;;;;;10.20;7.93;;;2.50;99.90;;;;;;493959;241;27485;-73
2023/12/08 05:49:49;;;;;;;13.65;9.63;;;2.50;99.90;;;;;;494015;241;27512;-74
2023/12/08 05:51:50;;;;;;;14.90;8.13;;;2.40;99.90;;;;;;494003;241;27525;-72
2023/12/08 05:53:51;;;;;;;11.38;9.43;;;2.50;99.90;;;;;;493954;241;27517;-73
2023/12/08 05:55:52;;;;;;;13.65;9.00;;;2.50;99.90;;;;;;493972;241;27553;-72
2023/12/08 05:57:54;;;;;;;12.10;8.95;;;2.50;99.90;;;;;;494045;241;27989;-72
2023/12/08 05:59:55;;;;;;;19.05;11.02;;;2.40;99.90;;;;;;494024;241;28046;-73
2023/12/08 06:01:56;;;;;;;17.27;11.25;;;2.40;99.90;;;;;;494003;241;27614;-72
2023/12/08 06:03:57;;;;;;;15.63;10.10;;;2.40;99.90;;;;;;494055;241;27461;-73
2023/12/08 06:05:59;;;;;;;15.48;10.35;;;2.40;99.90;;;;;;494038;237;27555;-73
2023/12/08 06:08:00;;;;;;;16.15;10.30;;;2.40;99.90;;;;;;493988;241;27490;-73
2023/12/08 06:10:01;;;;;;;14.52;11.00;;;2.40;99.90;;;;;;494112;241;27516;-73
2023/12/08 06:12:02;;;;;;;19.15;12.68;;;2.50;99.90;;;;;;493921;241;27541;-72
2023/12/08 06:14:06;;;;;;;18.48;13.73;;;2.50;99.90;;;;;;493985;241;27955;-72
2023/12/08 06:16:05;;;;;;;17.87;11.80;;;2.40;99.90;;;;;;493829;237;29100;-74
2023/12/08 06:18:06;;;;;;;19.23;13.15;;;2.40;99.90;;;;;;494056;241;27538;-73
2023/12/08 06:20:10;;;;;;;19.00;12.15;;;2.50;99.90;;;;;;493943;241;27599;-73
2023/12/08 06:22:12;;;;;;;21.50;13.82;;;2.50;99.90;;;;;;494043;241;27502;-73
2023/12/08 06:24:13;;;;;;;23.23;13.40;;;2.40;99.90;;;;;;493982;241;27498;-75
2023/12/08 06:26:14;;;;;;;17.42;11.48;;;2.40;99.90;;;;;;493992;241;27559;-72
2023/12/08 06:28:15;;;;;;;17.50;11.52;;;2.50;99.90;;;;;;494037;241;27972;-72
2023/12/08 06:30:17;;;;;;;16.90;11.98;;;2.40;99.90;;;;;;494055;241;27990;-72
2023/12/08 06:32:18;;;;;;;20.58;13.23;;;2.40;99.90;;;;;;494076;241;27515;-73
2023/12/08 06:34:19;;;;;;;17.45;10.85;;;2.40;99.90;;;;;;494094;241;28009;-74
2023/12/08 06:36:20;;;;;;;26.55;15.35;;;2.40;99.90;;;;;;494058;241;27499;-73
2023/12/08 06:38:22;;;;;;;27.13;16.60;;;2.40;99.90;;;;;;493992;241;27581;-72
2023/12/08 06:40:23;;;;;;;16.10;11.35;;;2.50;99.90;;;;;;493965;241;27576;-72
2023/12/08 06:42:24;;;;;;;20.85;14.25;;;2.40;99.90;;;;;;494058;241;27466;-72
2023/12/08 06:44:25;;;;;;;29.63;18.83;;;2.40;99.90;;;;;;494061;241;28012;-73
2023/12/08 06:46:27;;;;;;;18.58;12.52;;;2.40;99.90;;;;;;493955;241;27924;-73
2023/12/08 06:48:28;;;;;;;26.40;15.20;;;2.50;99.90;;;;;;494079;237;27518;-73
2023/12/08 06:50:30;;;;;;;18.50;11.55;;;2.50;99.90;;;;;;494077;237;27600;-72
2023/12/08 06:52:30;;;;;;;19.08;12.35;;;2.50;99.90;;;;;;494039;241;27514;-73
2023/12/08 06:54:32;;;;;;;18.23;12.27;;;2.50;99.90;;;;;;494045;241;27564;-73
2023/12/08 06:56:33;;;;;;;20.58;12.48;;;2.50;99.90;;;;;;493983;241;27486;-72
2023/12/08 06:58:34;;;;;;;16.10;11.30;;;2.50;99.90;;;;;;493959;239;27573;-74
2023/12/08 07:00:36;;;;;;;19.35;12.30;;;2.60;99.90;;;;;;493963;241;28163;-75
2023/12/08 07:02:37;;;;;;;17.33;12.02;;;2.60;99.90;;;;;;493984;241;29031;-72
2023/12/08 07:04:38;;;;;;;19.62;12.45;;;2.60;99.90;;;;;;493997;241;27565;-72
2023/12/08 07:06:39;;;;;;;21.33;14.00;;;2.70;99.90;;;;;;493980;241;27450;-72
2023/12/08 07:08:41;;;;;;;19.05;11.88;;;2.70;99.90;;;;;;493980;241;27498;-72
2023/12/08 07:10:42;;;;;;;16.58;11.90;;;2.70;99.90;;;;;;494084;241;27582;-73
2023/12/08 07:12:43;;;;;;;15.27;11.25;;;2.70;99.90;;;;;;493968;241;27461;-72
2023/12/08 07:14:44;;;;;;;17.58;12.15;;;2.80;99.90;;;;;;493977;241;27637;-72
2023/12/08 07:16:46;;;;;;;18.50;11.95;;;2.80;99.90;;;;;;493959;241;28688;-72
2023/12/08 07:18:47;;;;;;;15.95;10.68;;;2.80;99.90;;;;;;493978;241;29006;-73
2023/12/08 07:20:48;;;;;;;15.38;10.82;;;2.80;99.90;;;;;;493987;241;27620;-73
2023/12/08 07:22:49;;;;;;;15.68;10.77;;;2.90;99.90;;;;;;493984;241;27465;-72
2023/12/08 07:24:51;;;;;;;17.67;11.77;;;2.90;99.90;;;;;;493941;241;27623;-73
2023/12/08 07:26:54;;;;;;;12.88;9.85;;;2.90;99.90;;;;;;494017;241;27499;-73
2023/12/08 07:28:53;;;;;;;15.10;10.50;;;2.90;99.90;;;;;;493942;241;27477;-72
2023/12/08 07:30:54;;;;;;;14.45;9.40;;;2.90;99.90;;;;;;493964;237;28100;-72
2023/12/08 07:32:56;;;;;;;15.50;11.38;;;2.90;99.90;;;;;;493996;241;27906;-73
2023/12/08 07:34:57;;;;;;;13.43;9.77;;;3.00;99.90;;;;;;494006;237;27945;-73
2023/12/08 07:36:58;;;;;;;18.10;12.00;;;3.00;99.90;;;;;;494056;241;27552;-74
2023/12/08 07:39:00;;;;;;;15.55;10.95;;;3.00;99.90;;;;;;494034;241;27453;-72
2023/12/08 07:41:01;;;;;;;12.13;9.07;;;3.00;99.90;;;;;;494101;237;27517;-73
2023/12/08 07:43:02;;;;;;;11.32;8.88;;;3.00;99.90;;;;;;494030;241;27504;-73
2023/12/08 07:45:04;;;;;;;13.82;9.60;;;3.00;99.90;;;;;;494022;241;27486;-73
2023/12/08 07:47:04;;;;;;;11.63;8.55;;;3.00;99.90;;;;;;494001;241;27501;-73
2023/12/08 07:49:06;;;;;;;11.35;8.93;;;3.00;99.90;;;;;;494026;241;27458;-72
2023/12/08 07:51:08;;;;;;;9.85;7.93;;;3.00;99.90;;;;;;493982;241;28014;-74
2023/12/08 07:53:08;;;;;;;11.25;9.05;;;3.10;99.90;;;;;;493944;241;28143;-73
2023/12/08 07:55:09;;;;;;;10.70;8.35;;;3.10;99.90;;;;;;494011;241;27934;-73
2023/12/08 07:57:11;;;;;;;10.80;8.48;;;3.10;99.90;;;;;;493997;241;27598;-73
2023/12/08 07:59:12;;;;;;;10.50;8.60;;;3.10;99.90;;;;;;494002;237;27459;-73
2023/12/08 08:01:13;;;;;;;15.68;10.90;;;3.10;99.90;;;;;;493973;241;27512;-73
2023/12/08 08:03:14;;;;;;;8.43;7.57;;;3.10;99.90;;;;;;494023;241;27604;-73
2023/12/08 08:05:16;;;;;;;13.75;9.65;;;3.20;99.90;;;;;;493997;241;27446;-73
2023/12/08 08:07:17;;;;;;;10.57;8.63;;;3.20;99.90;;;;;;493981;241;27609;-73
2023/12/08 08:09:18;;;;;;;10.88;7.90;;;3.20;99.90;;;;;;493993;241;27469;-72
2023/12/08 08:11:19;;;;;;;11.07;7.87;;;3.30;99.90;;;;;;493978;241;28011;-73
2023/12/08 08:13:21;;;;;;;10.90;8.68;;;3.30;99.90;;;;;;493993;241;28007;-73
2023/12/08 08:15:22;;;;;;;14.43;9.07;;;3.30;99.90;;;;;;494040;241;28008;-74
2023/12/08 08:17:23;;;;;;;8.65;7.07;;;3.40;99.90;;;;;;494057;241;27584;-73
2023/12/08 08:19:24;;;;;;;11.15;8.73;;;3.40;99.90;;;;;;493987;241;27624;-73
2023/12/08 08:21:26;;;;;;;13.70;8.93;;;3.40;99.90;;;;;;493996;241;27561;-73
2023/12/08 08:23:27;;;;;;;9.70;7.82;;;3.40;99.90;;;;;;493984;239;27523;-73
2023/12/08 08:25:28;;;;;;;11.75;9.00;;;3.40;99.90;;;;;;494043;241;27559;-73
2023/12/08 08:27:29;;;;;;;9.32;7.60;;;3.40;99.90;;;;;;493974;241;27640;-73
2023/12/08 08:29:31;;;;;;;10.82;8.40;;;3.40;99.90;;;;;;494078;241;27666;-74
2023/12/08 08:31:32;;;;;;;11.75;8.20;;;3.50;99.90;;;;;;494109;241;27476;-73
2023/12/08 08:33:33;;;;;;;14.13;9.70;;;3.50;99.90;;;;;;494100;241;27943;-73
2023/12/08 08:35:34;;;;;;;9.93;7.37;;;3.50;99.90;;;;;;494003;241;29077;-72
2023/12/08 08:37:36;;;;;;;11.63;8.00;;;3.50;99.90;;;;;;493984;241;29164;-73
2023/12/08 08:39:37;;;;;;;15.05;10.82;;;3.50;99.90;;;;;;494029;241;27507;-74
2023/12/08 08:41:38;;;;;;;10.25;8.70;;;3.50;99.90;;;;;;493988;241;27564;-73
2023/12/08 08:43:40;;;;;;;12.80;9.52;;;3.60;99.90;;;;;;493970;241;27505;-73
2023/12/08 08:45:41;;;;;;;14.48;10.15;;;3.60;99.90;;;;;;493999;241;27489;-72
2023/12/08 08:47:42;;;;;;;12.32;9.13;;;3.60;99.90;;;;;;493987;241;27462;-72
2023/12/08 08:49:43;;;;;;;14.63;9.82;;;3.60;99.90;;;;;;493903;241;27493;-73
2023/12/08 08:51:45;;;;;;;12.52;8.43;;;3.60;99.90;;;;;;494078;241;27455;-72
2023/12/08 08:53:46;;;;;;;13.40;8.93;;;3.60;99.90;;;;;;494022;241;27983;-73
2023/12/08 08:55:47;;;;;;;10.88;8.07;;;3.60;99.90;;;;;;494024;241;28276;-73
2023/12/08 08:57:49;;;;;;;15.65;9.45;;;3.70;99.90;;;;;;493913;241;27465;-73
2023/12/08 08:59:50;;;;;;;9.93;8.18;;;3.70;99.90;;;;;;493873;241;27568;-74
2023/12/08 09:01:51;;;;;;;11.20;8.00;;;3.70;99.90;;;;;;493869;241;27601;-73
2023/12/08 09:03:52;;;;;;;15.05;9.25;;;3.70;99.90;;;;;;494033;241;27497;-72
2023/12/08 09:05:53;;;;;;;13.60;9.18;;;3.80;99.90;;;;;;493986;241;27539;-75
2023/12/08 09:07:55;;;;;;;14.43;9.35;;;3.80;99.90;;;;;;493928;241;27565;-72
2023/12/08 09:09:56;;;;;;;12.15;9.07;;;3.80;99.90;;;;;;493937;241;27500;-73
2023/12/08 09:11:57;;;;;;;15.05;10.68;;;3.90;99.90;;;;;;494023;241;27532;-72
2023/12/08 09:13:58;;;;;;;10.75;7.82;;;3.90;99.90;;;;;;494041;241;27909;-72
2023/12/08 09:16:00;;;;;;;9.20;7.57;;;3.90;99.90;;;;;;494004;241;29095;-73
2023/12/08 09:18:01;;;;;;;16.80;9.35;;;4.00;99.90;;;;;;493985;241;29060;-73
2023/12/08 09:20:04;;;;;;;19.52;10.43;;;4.00;99.90;;;;;;493984;241;27497;-73
2023/12/08 09:22:05;;;;;;;11.50;8.35;;;4.00;99.90;;;;;;493932;241;27533;-73
2023/12/08 09:24:05;;;;;;;11.30;7.82;;;4.00;99.90;;;;;;493974;241;27465;-73
2023/12/08 09:26:06;;;;;;;19.25;12.07;;;4.10;99.90;;;;;;494066;241;27588;-73
2023/12/08 09:28:07;;;;;;;16.95;11.50;;;4.10;99.90;;;;;;494043;237;27467;-74
2023/12/08 09:30:08;;;;;;;14.15;9.75;;;4.10;99.90;;;;;;494055;241;27603;-73
2023/12/08 09:32:10;;;;;;;13.25;9.30;;;4.10;99.90;;;;;;493999;241;28174;-73
2023/12/08 09:34:11;;;;;;;13.02;7.95;;;4.10;99.90;;;;;;494002;241;28116;-73
2023/12/08 09:36:12;;;;;;;11.18;7.78;;;4.20;99.90;;;;;;493984;241;27498;-73
2023/12/08 09:38:13;;;;;;;13.40;8.73;;;4.20;99.90;;;;;;494048;241;27584;-73
2023/12/08 09:40:15;;;;;;;15.85;10.23;;;4.20;99.90;;;;;;494060;241;27585;-75
2023/12/08 09:42:16;;;;;;;13.80;8.63;;;4.20;99.90;;;;;;494075;241;27518;-73
2023/12/08 09:44:18;;;;;;;14.87;8.60;;;4.20;99.90;;;;;;494079;241;27459;-73
2023/12/08 09:46:18;;;;;;;17.25;9.70;;;4.20;99.90;;;;;;493980;241;27587;-73
2023/12/08 09:48:20;;;;;;;13.27;7.62;;;4.30;99.90;;;;;;493963;241;28668;-72
2023/12/08 09:50:22;;;;;;;9.65;7.40;;;4.30;99.90;;;;;;493967;241;27954;-74
2023/12/08 09:52:22;;;;;;;9.77;7.50;;;4.30;99.90;;;;;;494053;241;27979;-73
2023/12/08 09:54:23;;;;;;;11.20;7.78;;;4.40;99.90;;;;;;493999;241;27541;-73
2023/12/08 09:56:25;;;;;;;10.32;7.72;;;4.40;99.90;;;;;;493971;241;27505;-74
2023/12/08 09:58:26;;;;;;;10.90;7.70;;;4.40;99.90;;;;;;493985;241;27493;-74
2023/12/08 10:00:27;;;;;;;10.93;8.10;;;4.50;99.90;;;;;;493987;241;27544;-73
2023/12/08 10:02:28;;;;;;;9.93;7.35;;;4.50;99.90;;;;;;494010;241;27516;-73
2023/12/08 10:04:30;;;;;;;9.00;7.05;;;4.50;99.90;;;;;;493991;241;27458;-73
2023/12/08 10:06:31;;;;;;;9.93;7.30;;;4.50;99.90;;;;;;493992;241;28026;-73
2023/12/08 10:08:32;;;;;;;12.77;8.82;;;4.60;99.90;;;;;;493999;241;27965;-74
2023/12/08 10:10:33;;;;;;;12.85;8.80;;;4.60;99.90;;;;;;493991;241;27969;-73
2023/12/08 10:12:35;;;;;;;10.57;7.95;;;4.60;99.90;;;;;;494011;241;27492;-73
2023/12/08 10:14:36;;;;;;;12.88;8.40;;;4.70;99.90;;;;;;494007;241;27455;-72
2023/12/08 10:16:37;;;;;;;11.75;8.73;;;4.70;99.90;;;;;;494102;241;27543;-72
2023/12/08 10:18:38;;;;;;;9.88;7.53;;;4.70;99.90;;;;;;493990;241;27510;-75
2023/12/08 10:20:40;;;;;;;9.45;7.12;;;4.70;99.90;;;;;;494015;241;27457;-73
2023/12/08 10:22:41;;;;;;;7.53;6.12;;;4.80;99.90;;;;;;494013;241;27525;-73
2023/12/08 10:24:42;;;;;;;10.05;6.70;;;4.80;99.90;;;;;;494027;241;27573;-73
2023/12/08 10:26:44;;;;;;;11.20;7.75;;;4.80;99.90;;;;;;494038;241;27926;-72
2023/12/08 10:28:45;;;;;;;11.55;7.82;;;4.80;99.90;;;;;;494025;241;28120;-73
2023/12/08 10:30:46;;;;;;;9.38;6.82;;;4.80;99.90;;;;;;494028;241;27454;-72
2023/12/08 10:32:47;;;;;;;10.50;7.22;;;4.80;99.90;;;;;;493976;241;27505;-72